Time;durP1;ratioP1;P1;durP2;ratioP2;P2;SDS_P1;SDS_P2;PMS_P1;PMS_P2;Temp;Humidity;BMP_temperature;BMP_pressure;BME280_temperature;BME280_humidity;BME280_pressure;Samples;Min_cycle;Max_cycle;Signal;HPM_P1;HPM_P2
2022/07/10 00:00:37;;;;;;;1.20;0.70;;;21.50;48.80;;;;;;4939318;28;20046;-74
2022/07/10 00:03:04;;;;;;;2.17;1.35;;;21.40;48.70;;;;;;4945307;28;20039;-75
2022/07/10 00:05:31;;;;;;;2.50;1.10;;;21.40;49.40;;;;;;4938453;28;20397;-76
2022/07/10 00:07:57;;;;;;;3.05;1.25;;;21.30;48.60;;;;;;4931976;28;20066;-75
2022/07/10 00:10:24;;;;;;;1.13;0.82;;;21.30;48.70;;;;;;4969952;28;20137;-76
2022/07/10 00:12:51;;;;;;;1.77;0.93;;;21.30;48.70;;;;;;4903087;29;20158;-75
2022/07/10 00:15:18;;;;;;;2.17;0.65;;;21.20;48.60;;;;;;4939705;28;20129;-74
2022/07/10 00:17:44;;;;;;;0.98;0.82;;;21.10;48.50;;;;;;4936239;29;20023;-75
2022/07/10 00:20:12;;;;;;;1.13;0.90;;;21.10;48.60;;;;;;4958466;28;20066;-76
2022/07/10 00:22:38;;;;;;;1.50;1.08;;;21.10;48.60;;;;;;4961432;28;20042;-76
2022/07/10 00:25:06;;;;;;;1.23;0.82;;;21.00;48.40;;;;;;4938849;28;20424;-75
2022/07/10 00:27:32;;;;;;;1.23;0.80;;;21.00;48.50;;;;;;4929042;28;20107;-76
2022/07/10 00:29:58;;;;;;;3.67;1.52;;;21.00;48.60;;;;;;4939665;28;20620;-75
2022/07/10 00:32:24;;;;;;;1.02;0.73;;;20.90;48.40;;;;;;4946669;29;20129;-74
2022/07/10 00:34:51;;;;;;;0.95;0.82;;;20.90;48.50;;;;;;4952486;28;20042;-76
2022/07/10 00:37:18;;;;;;;1.33;1.10;;;20.90;48.60;;;;;;4928413;29;20038;-75
2022/07/10 00:39:44;;;;;;;1.15;0.88;;;20.80;48.40;;;;;;4944744;28;20119;-74
2022/07/10 00:42:13;;;;;;;0.60;0.60;;;20.80;49.10;;;;;;4946019;29;20093;-75
2022/07/10 00:44:40;;;;;;;2.05;0.88;;;20.80;48.60;;;;;;4943748;28;20039;-74
2022/07/10 00:47:07;;;;;;;1.23;0.75;;;20.70;48.40;;;;;;4946649;28;20043;-75
2022/07/10 00:49:38;;;;;;;1.50;0.85;;;20.70;48.50;;;;;;4929272;28;20031;-76
2022/07/10 00:52:07;;;;;;;2.65;1.10;;;20.60;49.00;;;;;;4933022;28;20038;-76
2022/07/10 00:54:34;;;;;;;0.77;0.68;;;20.60;48.50;;;;;;4951410;28;20101;-75
2022/07/10 00:57:04;;;;;;;1.30;0.93;;;20.60;48.60;;;;;;4953342;28;20035;-75
2022/07/10 00:59:30;;;;;;;1.48;0.85;;;20.50;48.50;;;;;;4954672;28;20050;-76
2022/07/10 01:01:56;;;;;;;1.10;0.65;;;20.50;48.60;;;;;;4940603;29;20384;-75
2022/07/10 01:04:23;;;;;;;0.90;0.60;;;20.40;48.50;;;;;;4935927;28;20039;-76
2022/07/10 01:06:49;;;;;;;1.63;0.98;;;20.40;48.60;;;;;;4949801;28;20090;-75
2022/07/10 01:09:15;;;;;;;0.65;0.60;;;20.30;48.50;;;;;;4913471;29;20045;-76
2022/07/10 01:11:41;;;;;;;0.95;0.70;;;20.30;48.60;;;;;;4928233;29;20409;-76
2022/07/10 01:14:08;;;;;;;0.98;0.60;;;20.20;48.50;;;;;;4947379;28;20042;-75
2022/07/10 01:16:35;;;;;;;2.30;0.90;;;20.20;48.60;;;;;;4946584;28;20032;-75
2022/07/10 01:19:00;;;;;;;0.60;0.60;;;20.20;48.70;;;;;;4947775;28;21190;-75
2022/07/10 01:21:31;;;;;;;0.90;0.50;;;20.20;48.80;;;;;;4951956;28;20050;-75
2022/07/10 01:23:58;;;;;;;0.95;0.70;;;20.10;48.80;;;;;;4949650;28;20043;-75
2022/07/10 01:26:24;;;;;;;0.90;0.85;;;20.00;48.70;;;;;;4944121;28;20073;-75
2022/07/10 01:28:51;;;;;;;2.20;0.80;;;20.00;48.80;;;;;;4944252;28;20042;-76
2022/07/10 01:31:19;;;;;;;0.73;0.73;;;20.00;49.00;;;;;;4945523;28;20058;-75
2022/07/10 01:33:48;;;;;;;0.63;0.50;;;19.90;48.80;;;;;;4948989;28;20133;-75
2022/07/10 01:36:14;;;;;;;1.13;0.98;;;19.90;48.90;;;;;;4945457;29;20034;-75
2022/07/10 01:38:40;;;;;;;1.10;0.70;;;19.80;49.00;;;;;;4955702;28;20478;-76
2022/07/10 01:41:08;;;;;;;0.80;0.80;;;19.80;49.00;;;;;;4934067;28;20040;-75
2022/07/10 01:43:37;;;;;;;1.40;0.80;;;19.80;49.10;;;;;;4927525;29;20058;-75
2022/07/10 01:46:04;;;;;;;0.80;0.80;;;19.80;49.20;;;;;;4942945;28;20079;-77
2022/07/10 01:48:30;;;;;;;1.10;1.00;;;19.70;49.10;;;;;;4947114;28;20046;-75
2022/07/10 01:50:57;;;;;;;0.80;0.80;;;19.70;49.20;;;;;;4949092;29;20035;-76
2022/07/10 01:53:23;;;;;;;1.35;1.25;;;19.60;49.20;;;;;;4938561;29;20114;-75
2022/07/10 01:55:49;;;;;;;0.63;0.63;;;19.60;49.20;;;;;;4940476;29;20027;-75
2022/07/10 01:58:15;;;;;;;0.80;0.63;;;19.50;49.20;;;;;;4940169;28;20043;-75
2022/07/10 02:00:41;;;;;;;1.00;0.70;;;19.50;49.30;;;;;;4949163;29;20051;-76
2022/07/10 02:05:51;;;;;;;0.82;0.70;;;19.40;49.40;;;;;;4932740;29;20405;-75
2022/07/10 02:08:17;;;;;;;2.33;0.88;;;19.40;49.50;;;;;;4943678;28;20016;-75
2022/07/10 02:10:44;;;;;;;1.00;0.90;;;19.30;49.50;;;;;;4942178;28;20041;-75
2022/07/10 02:13:11;;;;;;;0.98;0.70;;;19.30;49.60;;;;;;4943601;28;20501;-76
2022/07/10 02:15:37;;;;;;;0.63;0.60;;;19.20;49.50;;;;;;4958257;28;20039;-76
2022/07/10 02:18:03;;;;;;;1.38;0.90;;;19.20;49.70;;;;;;4948578;28;20042;-76
2022/07/10 02:20:29;;;;;;;1.42;0.80;;;19.20;49.80;;;;;;4947360;28;20074;-76
2022/07/10 02:22:55;;;;;;;0.80;0.80;;;19.20;49.90;;;;;;4945417;28;20023;-75
2022/07/10 02:25:21;;;;;;;0.57;0.55;;;19.10;49.90;;;;;;4930581;29;20070;-75
2022/07/10 02:27:46;;;;;;;0.70;0.70;;;19.10;49.90;;;;;;4942877;28;20115;-74
2022/07/10 02:30:12;;;;;;;1.48;1.15;;;19.10;50.00;;;;;;4948956;28;20133;-74
2022/07/10 02:32:38;;;;;;;0.68;0.68;;;19.00;50.00;;;;;;4949633;28;20122;-75
2022/07/10 02:35:04;;;;;;;0.90;0.80;;;19.00;50.10;;;;;;4953484;28;20130;-75
2022/07/10 02:37:30;;;;;;;1.05;0.70;;;19.00;50.30;;;;;;4915071;29;20047;-75
2022/07/10 02:39:56;;;;;;;1.02;0.95;;;18.90;50.20;;;;;;4947835;28;20062;-74
2022/07/10 02:42:22;;;;;;;0.82;0.80;;;18.90;50.30;;;;;;4948283;28;20122;-75
2022/07/10 02:44:48;;;;;;;0.75;0.70;;;18.90;50.40;;;;;;4938215;28;20038;-74
2022/07/10 02:47:14;;;;;;;1.02;0.93;;;18.90;50.50;;;;;;4946147;28;20122;-74
2022/07/10 02:49:40;;;;;;;1.50;1.00;;;18.80;50.40;;;;;;4946874;28;20042;-76
2022/07/10 02:52:06;;;;;;;1.08;0.90;;;18.70;50.40;;;;;;4937941;28;20035;-74
2022/07/10 02:54:31;;;;;;;0.80;0.80;;;18.70;50.50;;;;;;4970791;28;20035;-75
2022/07/10 02:56:57;;;;;;;1.73;0.77;;;18.70;50.70;;;;;;4956360;28;20047;-75
2022/07/10 02:59:23;;;;;;;1.27;0.95;;;18.70;50.80;;;;;;4951697;28;20035;-75
2022/07/10 03:01:49;;;;;;;1.00;0.93;;;18.60;50.80;;;;;;4951420;28;20045;-74
2022/07/10 03:04:15;;;;;;;0.88;0.88;;;18.60;50.90;;;;;;4944979;28;20149;-74
2022/07/10 03:06:41;;;;;;;1.05;0.95;;;18.60;51.00;;;;;;4941768;29;20163;-75
2022/07/10 03:09:07;;;;;;;1.42;1.10;;;18.50;51.00;;;;;;4940751;28;20445;-75
2022/07/10 03:11:33;;;;;;;0.73;0.73;;;18.50;51.00;;;;;;4944801;28;20023;-75
2022/07/10 03:13:59;;;;;;;0.80;0.80;;;18.50;51.20;;;;;;4940879;29;20038;-75
2022/07/10 03:16:25;;;;;;;1.48;1.38;;;18.40;51.10;;;;;;4950218;28;20083;-75
2022/07/10 03:18:51;;;;;;;1.08;0.98;;;18.30;51.10;;;;;;4950705;28;20035;-75
2022/07/10 03:21:16;;;;;;;1.10;1.00;;;18.30;51.20;;;;;;4933597;29;20051;-76
2022/07/10 03:23:42;;;;;;;1.17;1.00;;;18.30;51.30;;;;;;4934428;29;20031;-75
2022/07/10 03:26:08;;;;;;;1.83;0.90;;;18.30;51.40;;;;;;4950361;28;20031;-74
2022/07/10 03:28:35;;;;;;;1.30;1.20;;;18.20;51.40;;;;;;4947187;28;20039;-75
2022/07/10 03:31:02;;;;;;;2.15;1.00;;;18.20;51.50;;;;;;4934546;29;20067;-75
2022/07/10 03:33:28;;;;;;;0.90;0.90;;;18.10;51.40;;;;;;4955967;28;20073;-75
2022/07/10 03:35:54;;;;;;;2.70;1.00;;;18.10;51.60;;;;;;4965878;28;20035;-75
2022/07/10 03:38:20;;;;;;;1.40;1.30;;;18.00;52.10;;;;;;4947576;29;20039;-76
2022/07/10 03:40:48;;;;;;;1.33;1.13;;;18.00;51.60;;;;;;4950356;28;20568;-75
2022/07/10 03:43:14;;;;;;;2.88;0.90;;;18.00;51.70;;;;;;4947786;28;20154;-75
2022/07/10 03:45:40;;;;;;;0.90;0.80;;;18.00;51.80;;;;;;4951074;28;20408;-76
2022/07/10 03:48:06;;;;;;;1.30;1.13;;;18.00;52.00;;;;;;4942372;29;20032;-75
2022/07/10 03:50:33;;;;;;;1.30;1.20;;;17.90;51.90;;;;;;4933627;29;20035;-76
2022/07/10 03:52:59;;;;;;;0.80;0.80;;;18.00;52.20;;;;;;4952904;28;20086;-75
2022/07/10 03:55:25;;;;;;;1.45;1.13;;;17.90;52.10;;;;;;4948524;28;20059;-74
2022/07/10 03:57:54;;;;;;;1.35;1.05;;;17.90;52.20;;;;;;4946282;28;20066;-74
2022/07/10 04:00:26;;;;;;;1.83;1.10;;;17.90;52.30;;;;;;4951248;28;20051;-75
2022/07/10 04:02:57;;;;;;;1.35;1.25;;;17.90;52.40;;;;;;4950649;29;20064;-75
2022/07/10 04:05:24;;;;;;;1.27;1.00;;;17.90;52.50;;;;;;4940939;28;20048;-75
2022/07/10 04:07:50;;;;;;;1.23;1.10;;;17.80;52.40;;;;;;4947223;29;20023;-76
2022/07/10 04:10:16;;;;;;;1.23;1.13;;;17.80;52.50;;;;;;4945765;28;20037;-75
2022/07/10 04:12:43;;;;;;;1.20;1.10;;;17.70;52.50;;;;;;4932451;29;20031;-74
2022/07/10 04:15:09;;;;;;;1.70;1.55;;;17.70;52.60;;;;;;4952033;28;20272;-75
2022/07/10 04:17:35;;;;;;;1.33;1.10;;;17.70;52.80;;;;;;4949434;28;20039;-75
2022/07/10 04:20:01;;;;;;;2.00;1.40;;;17.70;52.80;;;;;;4949906;28;20039;-75
2022/07/10 04:22:27;;;;;;;1.02;1.02;;;17.60;52.80;;;;;;4932291;29;20058;-75
2022/07/10 04:24:54;;;;;;;1.35;1.20;;;17.60;52.90;;;;;;4964912;28;20034;-75
2022/07/10 04:27:20;;;;;;;1.25;1.15;;;17.60;53.00;;;;;;4959048;28;20035;-75
2022/07/10 04:29:47;;;;;;;1.35;1.25;;;17.60;53.10;;;;;;4950182;28;20122;-75
2022/07/10 04:32:14;;;;;;;1.40;1.27;;;17.60;53.10;;;;;;4952531;28;20492;-75
2022/07/10 04:34:40;;;;;;;1.45;1.30;;;17.50;53.10;;;;;;4960533;28;20038;-75
2022/07/10 04:37:09;;;;;;;1.77;1.67;;;17.50;53.10;;;;;;4950819;28;20034;-75
2022/07/10 04:39:37;;;;;;;1.85;1.50;;;17.50;53.20;;;;;;4955320;28;20042;-75
2022/07/10 04:42:04;;;;;;;1.27;1.17;;;17.50;53.30;;;;;;4953225;28;20534;-75
2022/07/10 04:44:31;;;;;;;2.22;1.77;;;17.50;53.30;;;;;;4957755;28;20027;-75
2022/07/10 04:46:57;;;;;;;1.55;1.40;;;17.50;53.40;;;;;;4953254;28;20031;-75
2022/07/10 04:49:23;;;;;;;2.15;1.65;;;17.50;53.50;;;;;;4942830;28;20030;-74
2022/07/10 04:51:48;;;;;;;2.17;1.65;;;17.40;53.40;;;;;;4950930;28;20031;-75
2022/07/10 04:54:14;;;;;;;1.33;1.23;;;17.50;53.60;;;;;;4965392;28;20476;-75
2022/07/10 04:56:40;;;;;;;1.50;1.40;;;17.50;53.70;;;;;;4949958;28;20106;-75
2022/07/10 04:59:06;;;;;;;1.52;1.20;;;17.50;53.70;;;;;;4949807;28;20042;-75
2022/07/10 05:01:32;;;;;;;1.77;1.67;;;17.50;53.80;;;;;;4964657;28;20043;-75
2022/07/10 05:03:58;;;;;;;1.77;1.67;;;17.50;53.80;;;;;;4947159;28;20524;-77
2022/07/10 05:06:24;;;;;;;2.35;1.83;;;17.50;53.80;;;;;;4953113;28;20086;-76
2022/07/10 05:08:50;;;;;;;1.90;1.80;;;17.40;53.70;;;;;;4955763;28;20509;-76
2022/07/10 05:11:16;;;;;;;2.78;2.33;;;17.50;53.90;;;;;;4942949;28;20043;-76
2022/07/10 05:13:48;;;;;;;2.72;1.40;;;17.50;54.00;;;;;;4952249;28;20523;-75
2022/07/10 05:16:17;;;;;;;1.75;1.65;;;17.50;54.00;;;;;;4934769;28;20054;-74
2022/07/10 05:18:44;;;;;;;1.60;1.50;;;17.60;54.20;;;;;;4953922;28;20023;-76
2022/07/10 05:21:10;;;;;;;1.67;1.15;;;17.60;54.20;;;;;;4952556;28;20043;-75
2022/07/10 05:23:38;;;;;;;1.30;1.20;;;17.60;54.20;;;;;;4926041;29;20024;-76
2022/07/10 05:26:05;;;;;;;1.60;1.50;;;17.70;54.30;;;;;;4945522;28;20480;-76
2022/07/10 05:28:31;;;;;;;1.58;1.48;;;17.80;54.30;;;;;;4935168;28;20544;-76
2022/07/10 05:30:57;;;;;;;1.42;1.33;;;17.90;54.50;;;;;;4930291;28;20039;-75
2022/07/10 05:33:23;;;;;;;1.80;1.70;;;18.00;54.60;;;;;;4957157;28;20861;-75
2022/07/10 05:35:49;;;;;;;1.63;1.52;;;18.10;54.60;;;;;;4932285;29;20035;-79
2022/07/10 05:38:17;;;;;;;2.13;1.60;;;18.20;54.60;;;;;;4935449;28;20071;-78
2022/07/10 05:40:43;;;;;;;1.75;1.65;;;18.40;54.80;;;;;;4955651;28;20046;-79
2022/07/10 05:43:10;;;;;;;2.13;2.00;;;18.50;54.80;;;;;;4950774;28;20055;-78
2022/07/10 05:45:36;;;;;;;2.75;1.77;;;18.70;55.00;;;;;;4938229;28;20031;-78
2022/07/10 05:48:02;;;;;;;2.35;1.85;;;18.80;55.00;;;;;;4933373;28;20055;-77
2022/07/10 05:50:28;;;;;;;1.95;1.80;;;19.00;55.10;;;;;;4967059;28;20595;-77
2022/07/10 05:52:55;;;;;;;1.88;1.70;;;19.20;55.20;;;;;;4932298;28;20027;-77
2022/07/10 05:55:21;;;;;;;2.22;2.03;;;19.40;55.30;;;;;;4931298;28;20109;-76
2022/07/10 05:57:46;;;;;;;2.35;2.15;;;19.70;55.50;;;;;;4948445;28;20114;-76
2022/07/10 06:00:13;;;;;;;2.90;2.63;;;19.90;55.50;;;;;;4949021;28;20617;-77
2022/07/10 06:02:39;;;;;;;2.85;2.47;;;20.10;55.50;;;;;;4947994;28;20103;-76
2022/07/10 06:05:05;;;;;;;2.75;2.53;;;20.40;55.60;;;;;;4951807;28;20485;-76
2022/07/10 06:07:34;;;;;;;4.38;2.28;;;20.70;55.70;;;;;;4946607;28;20027;-76
2022/07/10 06:10:01;;;;;;;2.90;2.70;;;21.00;55.90;;;;;;4928361;29;20046;-77
2022/07/10 06:12:27;;;;;;;4.22;3.13;;;21.20;55.80;;;;;;4956114;28;20497;-77
2022/07/10 06:14:53;;;;;;;5.03;3.25;;;21.50;56.00;;;;;;4942621;28;20028;-76
2022/07/10 06:17:19;;;;;;;3.45;3.22;;;21.70;56.00;;;;;;4948014;28;20126;-76
2022/07/10 06:19:45;;;;;;;3.10;2.90;;;22.00;56.20;;;;;;4944264;28;20583;-78
2022/07/10 06:24:56;;;;;;;7.20;6.65;;;22.40;55.90;;;;;;4946554;28;20038;-77
2022/07/10 06:27:22;;;;;;;8.02;7.20;;;22.70;55.50;;;;;;4945906;28;20045;-78
2022/07/10 06:29:48;;;;;;;7.35;6.75;;;23.00;55.10;;;;;;4928400;28;20031;-77
2022/07/10 06:32:13;;;;;;;7.88;7.28;;;23.30;54.60;;;;;;4948207;28;20448;-78
2022/07/10 06:34:39;;;;;;;7.43;6.57;;;23.60;54.10;;;;;;4946379;28;20039;-78
2022/07/10 06:37:06;;;;;;;7.57;6.97;;;24.00;54.60;;;;;;4947129;28;20524;-77
2022/07/10 06:39:36;;;;;;;7.97;7.28;;;24.30;53.70;;;;;;4928726;29;20057;-76
2022/07/10 06:42:04;;;;;;;7.57;6.43;;;24.50;53.30;;;;;;4944666;28;20394;-80
2022/07/10 06:44:30;;;;;;;8.38;7.68;;;24.80;53.00;;;;;;4945601;28;20027;-77
2022/07/10 06:49:45;;;;;;;9.02;8.23;;;25.30;52.30;;;;;;4949896;28;20126;-78
2022/07/10 06:52:12;;;;;;;9.02;8.20;;;25.70;51.90;;;;;;4947548;28;20103;-77
2022/07/10 06:54:39;;;;;;;8.50;7.70;;;25.90;51.40;;;;;;4930410;28;20054;-78
2022/07/10 06:57:05;;;;;;;9.63;7.80;;;26.20;51.00;;;;;;4947613;28;20087;-80
2022/07/10 06:59:31;;;;;;;8.70;8.07;;;26.50;50.60;;;;;;4943407;28;20034;-78
2022/07/10 07:01:57;;;;;;;9.07;8.38;;;26.80;50.20;;;;;;4946469;28;20035;-78
2022/07/10 07:04:23;;;;;;;8.45;7.72;;;27.00;49.80;;;;;;4944784;28;20831;-77
2022/07/10 07:06:49;;;;;;;8.18;7.57;;;27.30;49.50;;;;;;4932986;28;20426;-77
2022/07/10 07:09:15;;;;;;;7.45;6.85;;;27.50;49.10;;;;;;4927340;28;20307;-79
2022/07/10 07:11:40;;;;;;;8.02;7.43;;;27.70;48.70;;;;;;4942983;28;20142;-79
2022/07/10 07:14:06;;;;;;;8.07;7.38;;;27.90;48.30;;;;;;4959556;28;20035;-78
2022/07/10 07:16:42;;;;;;;9.57;8.77;;;28.10;47.90;;;;;;4928354;29;20536;-79
2022/07/10 07:19:11;;;;;;;8.10;7.38;;;28.30;47.60;;;;;;4927701;28;20019;-78
2022/07/10 07:24:22;;;;;;;8.00;7.40;;;28.60;46.90;;;;;;4943716;28;20027;-81
2022/07/10 07:26:48;;;;;;;7.85;7.25;;;28.90;46.60;;;;;;4910233;29;20030;-79
2022/07/10 07:29:15;;;;;;;7.85;7.25;;;29.10;46.20;;;;;;4929034;28;20030;-79
2022/07/10 07:31:41;;;;;;;6.90;6.40;;;29.00;46.10;;;;;;4936985;28;20024;-78
2022/07/10 07:34:08;;;;;;;7.95;7.35;;;28.90;46.30;;;;;;4948155;28;20035;-76
2022/07/10 07:36:34;;;;;;;7.00;6.40;;;28.70;46.40;;;;;;4947812;28;20046;-78
2022/07/10 07:39:00;;;;;;;7.80;7.20;;;28.50;46.50;;;;;;4942681;28;20051;-77
2022/07/10 07:41:26;;;;;;;7.70;7.10;;;28.40;46.60;;;;;;4949854;28;20043;-79
2022/07/10 07:43:52;;;;;;;7.47;6.88;;;28.50;46.20;;;;;;4942314;28;20059;-77
2022/07/10 07:46:19;;;;;;;7.55;6.95;;;28.80;45.70;;;;;;4947246;28;20037;-77
2022/07/10 07:48:45;;;;;;;7.35;6.75;;;29.10;45.00;;;;;;4942430;28;20062;-77
2022/07/10 07:51:13;;;;;;;7.45;6.78;;;29.40;44.30;;;;;;4924246;28;20039;-78
2022/07/10 07:53:39;;;;;;;7.28;6.78;;;29.90;43.70;;;;;;4929218;28;20063;-79
2022/07/10 07:56:05;;;;;;;7.30;6.60;;;30.10;43.00;;;;;;4921814;28;20226;-78
2022/07/10 07:58:31;;;;;;;7.53;6.93;;;30.50;42.50;;;;;;4930499;28;20352;-78
2022/07/10 08:00:58;;;;;;;7.50;6.90;;;30.90;42.10;;;;;;4945326;28;20079;-80
2022/07/10 08:03:24;;;;;;;7.80;7.18;;;31.10;41.60;;;;;;4941068;28;20556;-77
2022/07/10 08:05:50;;;;;;;7.85;7.25;;;31.20;41.40;;;;;;4908854;29;20031;-76
2022/07/10 08:08:16;;;;;;;7.63;7.07;;;31.10;41.40;;;;;;4945891;28;20034;-76
2022/07/10 08:10:42;;;;;;;7.15;6.65;;;30.90;41.70;;;;;;4945032;28;20039;-77
2022/07/10 08:13:08;;;;;;;7.82;7.18;;;30.60;42.20;;;;;;4944388;28;20078;-79
2022/07/10 08:15:34;;;;;;;7.53;6.95;;;30.10;42.80;;;;;;4922464;28;20126;-78
2022/07/10 08:18:00;;;;;;;6.95;6.45;;;29.70;43.50;;;;;;4941420;28;20493;-77
2022/07/10 08:20:27;;;;;;;6.80;6.30;;;29.30;44.00;;;;;;4935714;28;20043;-78
2022/07/10 08:22:54;;;;;;;6.93;6.43;;;29.00;44.50;;;;;;4927791;28;20683;-77
2022/07/10 08:25:20;;;;;;;8.18;7.47;;;28.80;44.80;;;;;;4939713;28;20024;-75
2022/07/10 08:27:48;;;;;;;6.72;6.22;;;28.50;45.00;;;;;;4926146;28;20408;-76
2022/07/10 08:30:14;;;;;;;7.05;6.50;;;28.30;45.30;;;;;;4939912;28;20058;-76
2022/07/10 08:32:40;;;;;;;6.95;6.45;;;28.20;45.60;;;;;;4939723;28;20348;-82
2022/07/10 08:35:08;;;;;;;7.07;6.47;;;28.00;45.60;;;;;;4943230;28;20026;-86
2022/07/10 08:37:40;;;;;;;6.50;6.00;;;27.90;45.80;;;;;;4941728;28;20098;-86
2022/07/10 08:40:12;;;;;;;6.72;6.22;;;27.80;45.80;;;;;;4912749;28;20039;-88
2022/07/10 08:42:40;;;;;;;6.75;6.25;;;27.80;46.00;;;;;;4946469;28;20078;-81
2022/07/10 08:45:08;;;;;;;9.63;6.00;;;27.70;46.00;;;;;;4912563;29;20130;-82
2022/07/10 08:47:36;;;;;;;7.13;6.07;;;27.70;46.00;;;;;;4953215;28;20027;-78
2022/07/10 08:50:03;;;;;;;5.53;5.13;;;27.70;46.10;;;;;;4926434;29;20106;-76
2022/07/10 08:52:33;;;;;;;5.13;4.72;;;27.70;46.30;;;;;;4948600;28;20045;-78
2022/07/10 08:55:00;;;;;;;5.05;4.65;;;27.70;46.30;;;;;;4929968;29;20027;-81
2022/07/10 08:57:26;;;;;;;5.25;4.85;;;27.70;46.20;;;;;;4940530;28;20032;-76
2022/07/10 08:59:53;;;;;;;7.30;4.93;;;27.70;46.10;;;;;;4944018;28;20043;-77
2022/07/10 09:02:20;;;;;;;5.53;5.00;;;27.70;45.90;;;;;;4944532;28;20062;-77
2022/07/10 09:04:46;;;;;;;5.25;4.60;;;27.70;45.80;;;;;;4941331;29;20079;-79
2022/07/10 09:07:12;;;;;;;4.82;4.43;;;27.80;45.70;;;;;;4927392;29;20036;-78
2022/07/10 09:09:55;;;;;;;5.00;4.45;;;27.80;45.60;;;;;;4942331;28;20031;-78
2022/07/10 09:12:24;;;;;;;5.28;4.60;;;27.80;45.40;;;;;;4942342;29;20539;-76
2022/07/10 09:14:51;;;;;;;5.93;5.10;;;27.80;45.30;;;;;;4942085;28;20080;-80
2022/07/10 09:17:18;;;;;;;6.28;4.40;;;28.00;45.40;;;;;;4955104;28;20042;-78
2022/07/10 09:19:44;;;;;;;6.22;4.70;;;28.00;45.10;;;;;;4924780;29;20027;-78
2022/07/10 09:22:12;;;;;;;5.28;4.78;;;28.10;45.10;;;;;;4928224;29;20079;-79
2022/07/10 09:24:43;;;;;;;5.13;4.72;;;28.10;45.00;;;;;;4940947;28;20035;-78
2022/07/10 09:27:10;;;;;;;4.53;4.13;;;28.00;44.90;;;;;;4940592;29;20039;-81
2022/07/10 09:29:47;;;;;;;4.85;4.38;;;28.00;45.00;;;;;;4944322;28;20175;-79
2022/07/10 09:32:13;;;;;;;4.45;4.10;;;28.00;44.90;;;;;;4957432;28;20062;-79
2022/07/10 09:36:04;;;;;;;4.40;4.05;;;28.00;45.50;;;;;;4952382;28;20031;-80
2022/07/10 09:37:40;;;;;;;5.22;4.72;;;28.00;45.00;;;;;;4917290;28;20035;-80
2022/07/10 09:40:08;;;;;;;4.50;4.10;;;28.00;45.00;;;;;;4926145;28;20051;-79
2022/07/10 09:42:47;;;;;;;4.93;4.38;;;28.00;45.00;;;;;;4926321;29;20027;-78
2022/07/10 09:45:13;;;;;;;4.28;3.97;;;28.10;44.90;;;;;;4941901;28;20039;-80
2022/07/10 09:47:45;;;;;;;4.28;3.97;;;28.10;44.90;;;;;;4945572;28;20036;-78
2022/07/10 09:50:22;;;;;;;3.90;3.58;;;28.20;44.70;;;;;;4927738;29;20031;-77
2022/07/10 09:52:54;;;;;;;5.57;3.75;;;28.30;44.70;;;;;;4936919;28;20031;-77
2022/07/10 09:55:21;;;;;;;4.10;3.67;;;28.40;44.70;;;;;;4930504;28;20035;-77
2022/07/10 09:58:00;;;;;;;4.25;3.65;;;28.40;44.60;;;;;;4948060;28;20038;-78
2022/07/10 10:00:32;;;;;;;4.32;3.05;;;28.40;44.60;;;;;;4939127;28;20043;-81
2022/07/10 10:03:03;;;;;;;4.30;3.60;;;28.40;44.50;;;;;;4929106;29;20404;-77
2022/07/10 10:05:37;;;;;;;4.57;3.47;;;28.40;44.50;;;;;;4932754;28;20039;-77
2022/07/10 10:08:19;;;;;;;4.10;3.70;;;28.60;44.60;;;;;;4948309;28;20047;-78
2022/07/10 10:10:48;;;;;;;4.37;3.37;;;28.70;44.40;;;;;;4962561;28;20150;-76
2022/07/10 10:13:20;;;;;;;3.22;3.03;;;28.90;44.30;;;;;;4947368;28;20094;-80
2022/07/10 10:15:50;;;;;;;4.00;3.58;;;29.00;44.20;;;;;;4935282;28;20500;-80
2022/07/10 10:18:24;;;;;;;2.95;2.75;;;29.20;44.10;;;;;;4918962;28;20027;-80
2022/07/10 10:20:53;;;;;;;3.08;2.88;;;29.30;43.90;;;;;;4944872;28;20070;-77
2022/07/10 10:23:20;;;;;;;2.90;2.65;;;29.30;43.80;;;;;;4940577;29;20063;-78
2022/07/10 10:25:48;;;;;;;3.83;2.63;;;29.40;43.60;;;;;;4930125;29;20489;-78
2022/07/10 10:28:15;;;;;;;4.07;2.58;;;29.40;43.30;;;;;;4947081;28;20027;-78
2022/07/10 10:30:46;;;;;;;4.05;2.80;;;29.50;43.10;;;;;;4945141;28;20718;-76
2022/07/10 10:33:34;;;;;;;3.25;2.72;;;29.60;42.90;;;;;;4947018;28;20459;-78
2022/07/10 10:36:02;;;;;;;2.60;2.40;;;29.70;42.70;;;;;;4938623;29;20652;-77
2022/07/10 10:38:55;;;;;;;3.03;2.83;;;29.70;42.70;;;;;;4948429;28;20509;-78
2022/07/10 10:41:39;;;;;;;3.70;3.40;;;29.70;42.40;;;;;;4928765;29;20923;-78
2022/07/10 10:44:08;;;;;;;3.38;3.13;;;29.60;42.40;;;;;;4927937;29;20034;-79
2022/07/10 10:46:36;;;;;;;3.90;3.60;;;29.60;42.50;;;;;;4937558;28;20505;-80
2022/07/10 10:49:09;;;;;;;3.60;3.30;;;29.70;42.50;;;;;;4930431;29;20523;-79
2022/07/10 10:52:10;;;;;;;3.25;2.95;;;29.70;42.20;;;;;;4948066;28;20039;-77
2022/07/10 10:54:55;;;;;;;3.70;3.40;;;29.60;41.90;;;;;;4943098;28;20031;-76
2022/07/10 10:57:31;;;;;;;3.15;2.78;;;29.60;41.90;;;;;;4948430;28;20163;-76
2022/07/10 10:59:59;;;;;;;3.95;2.55;;;29.60;42.10;;;;;;4954551;28;20449;-76
2022/07/10 11:02:33;;;;;;;3.00;2.80;;;29.60;41.90;;;;;;4941813;28;20781;-78
2022/07/10 11:05:17;;;;;;;3.60;3.30;;;29.60;42.40;;;;;;4943589;28;20039;-77
2022/07/10 11:08:03;;;;;;;3.28;3.03;;;29.60;41.70;;;;;;4943961;28;20046;-78
2022/07/10 11:10:40;;;;;;;3.75;3.05;;;29.70;41.60;;;;;;4946404;28;20413;-78
2022/07/10 11:13:08;;;;;;;3.42;2.53;;;29.90;41.60;;;;;;4948290;28;20035;-78
2022/07/10 11:15:46;;;;;;;2.85;2.55;;;30.10;41.40;;;;;;4956176;28;20023;-77
2022/07/10 11:18:21;;;;;;;3.25;2.95;;;30.30;41.20;;;;;;4947019;28;20818;-79
2022/07/10 11:20:53;;;;;;;4.35;3.08;;;30.40;40.90;;;;;;4942789;29;20150;-77
2022/07/10 11:24:01;;;;;;;4.20;2.72;;;30.50;40.70;;;;;;4962751;28;20581;-83
2022/07/10 11:27:20;;;;;;;3.00;2.80;;;30.70;40.20;;;;;;4919126;29;20038;-90
2022/07/10 11:29:48;;;;;;;2.55;2.35;;;30.80;39.90;;;;;;4918532;29;20043;-90
2022/07/10 11:32:17;;;;;;;2.10;2.00;;;30.90;40.00;;;;;;4914602;29;20070;-88
2022/07/10 11:34:43;;;;;;;3.17;1.88;;;31.00;39.60;;;;;;4951001;28;20049;-81
2022/07/10 11:37:16;;;;;;;2.20;1.58;;;31.10;39.50;;;;;;4931760;29;20366;-80
2022/07/10 11:39:43;;;;;;;1.65;1.55;;;31.00;39.10;;;;;;4948518;28;20445;-78
2022/07/10 11:42:09;;;;;;;2.15;1.90;;;30.90;39.00;;;;;;4932164;29;20492;-78
2022/07/10 11:44:35;;;;;;;2.03;1.83;;;30.80;38.90;;;;;;4941553;28;20040;-79
2022/07/10 11:47:02;;;;;;;2.20;2.00;;;30.80;38.90;;;;;;4953020;29;20045;-78
2022/07/10 11:49:29;;;;;;;3.13;1.80;;;30.90;38.70;;;;;;4938078;28;20098;-77
2022/07/10 11:52:01;;;;;;;2.53;2.30;;;31.00;38.30;;;;;;4937288;28;20651;-77
2022/07/10 11:54:27;;;;;;;4.10;1.70;;;31.10;38.20;;;;;;4952970;28;20118;-75
2022/07/10 11:56:53;;;;;;;2.17;1.85;;;31.00;38.40;;;;;;4966624;28;20023;-80
2022/07/10 11:59:27;;;;;;;2.85;2.20;;;31.00;38.50;;;;;;4948616;28;20051;-81
2022/07/10 12:01:55;;;;;;;3.63;1.83;;;31.10;38.40;;;;;;4959118;29;20223;-78
2022/07/10 12:04:25;;;;;;;1.83;1.73;;;31.20;38.30;;;;;;4933417;29;20501;-78
2022/07/10 12:06:53;;;;;;;2.47;1.60;;;31.40;38.00;;;;;;4943289;28;20258;-79
2022/07/10 12:09:20;;;;;;;1.73;1.63;;;31.60;37.70;;;;;;4957958;28;20034;-77
2022/07/10 12:12:01;;;;;;;2.10;1.90;;;31.70;37.40;;;;;;4944695;28;20082;-81
2022/07/10 12:14:27;;;;;;;2.15;1.40;;;31.80;36.70;;;;;;4941272;28;20039;-79
2022/07/10 12:16:55;;;;;;;1.83;1.67;;;31.80;36.60;;;;;;4943594;28;20684;-81
2022/07/10 12:19:37;;;;;;;2.75;1.73;;;31.90;36.40;;;;;;4933575;29;20042;-81
2022/07/10 12:22:05;;;;;;;1.98;1.77;;;32.00;35.80;;;;;;4944299;29;20101;-76
2022/07/10 12:24:31;;;;;;;1.77;1.67;;;32.10;35.80;;;;;;4945586;28;20030;-76
2022/07/10 12:26:58;;;;;;;1.98;1.77;;;32.20;35.80;;;;;;4945652;29;20114;-76
2022/07/10 12:29:25;;;;;;;2.25;2.05;;;32.20;35.80;;;;;;4929067;29;20034;-82
2022/07/10 12:32:01;;;;;;;1.83;1.65;;;32.20;35.60;;;;;;4928649;29;20035;-76
2022/07/10 12:34:35;;;;;;;2.13;1.60;;;32.10;35.30;;;;;;4953000;28;20035;-76
2022/07/10 12:37:11;;;;;;;1.83;1.73;;;31.80;35.50;;;;;;4946178;28;20071;-79
2022/07/10 12:39:47;;;;;;;1.85;1.55;;;31.70;35.70;;;;;;4938512;28;20063;-79
2022/07/10 12:42:23;;;;;;;1.65;1.45;;;31.70;35.80;;;;;;4945946;29;20102;-79
2022/07/10 12:44:49;;;;;;;2.08;1.55;;;31.90;35.70;;;;;;4944217;29;20031;-76
2022/07/10 12:47:20;;;;;;;1.80;1.70;;;32.20;35.40;;;;;;4946044;28;20039;-82
2022/07/10 12:50:06;;;;;;;1.83;1.73;;;32.40;35.10;;;;;;4941829;28;20066;-76
2022/07/10 12:52:35;;;;;;;2.38;1.75;;;32.50;34.60;;;;;;4930801;28;20035;-75
2022/07/10 12:55:10;;;;;;;1.65;1.55;;;32.70;34.80;;;;;;4926689;28;20122;-75
2022/07/10 12:57:54;;;;;;;2.33;2.08;;;32.80;34.50;;;;;;4944249;28;20039;-76
2022/07/10 13:00:31;;;;;;;1.60;1.50;;;32.70;34.20;;;;;;4928652;29;20073;-76
2022/07/10 13:03:11;;;;;;;1.55;1.45;;;32.50;34.50;;;;;;4922532;29;20585;-75
2022/07/10 13:05:42;;;;;;;1.75;1.65;;;32.40;34.30;;;;;;4917792;29;20438;-77